• Join FlightAware (Why Join?)
  • Login
  • US Flag 
01:18AM EDT


 

Airport Tracker/Info


-or-


 

Live Flight TrackerFlight Track Log ✈ LOF3376 ✈ 27-Apr-2013 ✈ KSTL - KORD

Flight Track Log - Related Links

Times and Time Zones

All times are in EDT time to prevent confusion due to time zone crossing. See the LOF3376 flight status page for this flight to view local times or setup timezone preferences in your user account.

Time Position Orientation Groundspeed Altitude Reporting Facility
EDT Latitude Longitude Course Direction KTS MPH feet Rate Location/Type
06:53AM 38.7333 -90.3333 356° North 159 183 1,800  Level Gateway (St. Louis) TRACON
06:54AM 38.7333 -90.2667 90° East 226 260 3,800 1,740 Climbing Gateway (St. Louis) TRACON
06:55AM 38.7400 -90.2675 354° North 256 295 4,000 1,980 Climbing Kansas City Center
06:56AM 38.8602 -90.2000 North  Level FlightAware Approximate
06:56AM 38.8108 -90.2650 North 261 300 6,300  Level Kansas City Center
06:57AM 38.9449 -90.2000 North  Level FlightAware Approximate
06:57AM 38.8892 -90.2589 North 273 314 8,800  Level Kansas City Center
06:58AM 39.0295 -90.2013 356° North  Level FlightAware Approximate
06:58AM 38.9872 -90.2511 North 291 335 11,400  Level Kansas City Center
06:59AM 39.1247 -90.2108 356° North  Level FlightAware Approximate
06:59AM 39.0817 -90.2431 North 332 382 12,500  Level Kansas City Center
07:00AM 39.1819 -90.2353 North 357 411 13,700 1,200 Climbing Kansas City Center
07:01AM 39.2889 -90.2264 North 378 435 14,900 1,080 Climbing Kansas City Center
07:02AM 39.3986 -90.2167 North 392 451 15,900 1,080 Climbing Kansas City Center
07:03AM 39.5067 -90.1903 11° North 395 455 17,100 1,020 Climbing Kansas City Center
07:04AM 39.6161 -90.1639 11° North 398 458 18,000 960 Climbing Kansas City Center
07:05AM 39.7239 -90.1269 15° North 400 460 19,100 1,080 Climbing Kansas City Center
07:06AM 39.8194 -90.0469 33° Northeast 412 474 20,200 900 Climbing Kansas City Center
07:07AM 39.9200 -89.9703 30° Northeast 418 481 21,000 360 Climbing Kansas City Center
07:08AM 40.0256 -89.8900 30° Northeast 431 496 21,000  Level Kansas City Center
07:09AM 40.1300 -89.8069 31° Northeast 438 504 21,000 -300 Level Kansas City Center
07:10AM 40.2328 -89.7272 31° Northeast 434 499 20,400 -1,020 Descending Kansas City Center
07:11AM 40.3328 -89.6494 31° Northeast 424 488 19,000 -720 Descending Kansas City Center
07:12AM 40.4308 -89.5722 31° Northeast 418 481 19,000  Level Kansas City Center
07:13AM 40.5461 -89.4817 31° Northeast 411 473 19,000 -420 Level Chicago Center
07:14AM 40.6436 -89.4056 31° Northeast 411 473 18,200 -780 Descending Chicago Center
07:15AM 40.7369 -89.3319 31° Northeast 394 453 17,500 -960 Descending Chicago Center
07:16AM 40.8289 -89.2578 31° Northeast 389 448 16,300 -1,260 Descending Chicago Center
07:17AM 40.9125 -89.1703 38° Northeast 385 443 15,000 -1,260 Descending Chicago Center
07:18AM 40.9939 -89.0822 39° Northeast 380 437 13,800 -1,200 Descending Chicago Center
07:19AM 41.0714 -88.9994 39° Northeast 376 433 12,700 -1,200 Descending Chicago Center
07:20AM 41.1506 -88.9150 39° Northeast 369 425 11,500 -840 Descending Chicago Center
07:21AM 41.2281 -88.8297 40° Northeast 363 418 11,000 -300 Descending Chicago Center
07:22AM 41.3031 -88.7486 39° Northeast 351 404 11,000  Level Chicago Center
07:23AM 41.3908 -88.6525 39° Northeast 342 394 11,000  Level Chicago Center
07:24AM 41.4647 -88.5711 40° Northeast 344 396 11,000  Level Chicago Center
07:25AM 41.5389 -88.4903 39° Northeast 343 395 11,000 -120 Level Chicago Center
07:26AM 41.6133 -88.4094 39° Northeast 344 396 10,800 -540 Descending Chicago Center
07:27AM 41.6892 -88.3244 40° Northeast 351 404 10,000 -420 Descending Chicago Center
07:28AM 41.7481 -88.2281 51° Northeast 333 383 10,000 -720 Level Chicago Center
07:29AM 41.7953 -88.1472 52° Northeast 282 325 8,600 -1,500 Descending Chicago Center
07:30AM 41.8511 -88.0933 36° Northeast 274 315 7,000 -840 Descending Chicago Center
07:31AM 41.9222 -88.0975 358° North 259 298 7,000 -240 Level Chicago Center
07:32AM 41.9883 -88.1086 353° North 246 283 6,600 -1,080 Descending Chicago Center
07:33AM 42.0500 -88.1333 343° North 248 285 4,900 -1,560 Descending Chicago TRACON
07:34AM 42.1000 -88.0833 37° Northeast 244 281 3,500 -1,440 Descending Chicago TRACON